sensor_id;sensor_type;location;lat;lon;timestamp;P1;durP1;ratioP1;P2;durP2;ratioP2
16133;SDS011;8172;45.018;5.972;2022-08-14T00:02:20;2.90;;;1.87;;
16133;SDS011;8172;45.018;5.972;2022-08-14T00:07:30;1.93;;;1.80;;
16133;SDS011;8172;45.018;5.972;2022-08-14T00:12:43;5.07;;;2.10;;
16133;SDS011;8172;45.018;5.972;2022-08-14T00:17:52;3.30;;;1.90;;
16133;SDS011;8172;45.018;5.972;2022-08-14T00:23:00;3.33;;;2.40;;
16133;SDS011;8172;45.018;5.972;2022-08-14T00:28:11;3.33;;;2.00;;
16133;SDS011;8172;45.018;5.972;2022-08-14T00:33:22;2.67;;;1.90;;
16133;SDS011;8172;45.018;5.972;2022-08-14T00:38:32;2.87;;;1.90;;
16133;SDS011;8172;45.018;5.972;2022-08-14T00:43:40;2.07;;;1.77;;
16133;SDS011;8172;45.018;5.972;2022-08-14T00:48:49;2.63;;;2.07;;
16133;SDS011;8172;45.018;5.972;2022-08-14T00:53:58;3.03;;;1.90;;
16133;SDS011;8172;45.018;5.972;2022-08-14T00:59:08;4.17;;;2.00;;
16133;SDS011;8172;45.018;5.972;2022-08-14T01:04:18;2.77;;;1.97;;
16133;SDS011;8172;45.018;5.972;2022-08-14T01:09:29;2.90;;;2.00;;
16133;SDS011;8172;45.018;5.972;2022-08-14T01:14:40;1.83;;;1.73;;
16133;SDS011;8172;45.018;5.972;2022-08-14T01:19:49;2.93;;;1.90;;
16133;SDS011;8172;45.018;5.972;2022-08-14T01:24:59;2.20;;;1.90;;
16133;SDS011;8172;45.018;5.972;2022-08-14T01:30:11;2.87;;;2.13;;
16133;SDS011;8172;45.018;5.972;2022-08-14T01:35:25;2.60;;;1.97;;
16133;SDS011;8172;45.018;5.972;2022-08-14T01:40:38;5.03;;;1.93;;
16133;SDS011;8172;45.018;5.972;2022-08-14T01:45:46;3.37;;;1.80;;
16133;SDS011;8172;45.018;5.972;2022-08-14T01:50:58;3.87;;;2.00;;
16133;SDS011;8172;45.018;5.972;2022-08-14T01:56:07;5.27;;;2.20;;
16133;SDS011;8172;45.018;5.972;2022-08-14T02:01:18;3.90;;;2.00;;
16133;SDS011;8172;45.018;5.972;2022-08-14T02:06:28;2.33;;;2.00;;
16133;SDS011;8172;45.018;5.972;2022-08-14T02:11:37;2.23;;;2.03;;
16133;SDS011;8172;45.018;5.972;2022-08-14T02:16:45;3.00;;;2.10;;
16133;SDS011;8172;45.018;5.972;2022-08-14T02:21:58;4.30;;;2.13;;
16133;SDS011;8172;45.018;5.972;2022-08-14T02:27:09;2.53;;;2.00;;
16133;SDS011;8172;45.018;5.972;2022-08-14T02:32:19;2.73;;;2.23;;
16133;SDS011;8172;45.018;5.972;2022-08-14T02:37:29;3.53;;;2.10;;
16133;SDS011;8172;45.018;5.972;2022-08-14T02:42:39;2.97;;;1.90;;
16133;SDS011;8172;45.018;5.972;2022-08-14T02:47:49;3.73;;;2.13;;
16133;SDS011;8172;45.018;5.972;2022-08-14T02:52:58;3.70;;;2.30;;
16133;SDS011;8172;45.018;5.972;2022-08-14T02:58:08;1.70;;;1.60;;
16133;SDS011;8172;45.018;5.972;2022-08-14T03:03:17;2.40;;;2.20;;
16133;SDS011;8172;45.018;5.972;2022-08-14T03:08:27;2.77;;;2.50;;
16133;SDS011;8172;45.018;5.972;2022-08-14T03:13:38;5.97;;;2.20;;
16133;SDS011;8172;45.018;5.972;2022-08-14T03:18:49;4.30;;;1.97;;
16133;SDS011;8172;45.018;5.972;2022-08-14T03:23:59;3.13;;;2.10;;
16133;SDS011;8172;45.018;5.972;2022-08-14T03:29:11;2.57;;;2.17;;
16133;SDS011;8172;45.018;5.972;2022-08-14T03:34:20;2.33;;;2.03;;
16133;SDS011;8172;45.018;5.972;2022-08-14T03:39:29;3.47;;;2.33;;
16133;SDS011;8172;45.018;5.972;2022-08-14T03:44:37;4.40;;;2.27;;
16133;SDS011;8172;45.018;5.972;2022-08-14T03:49:48;2.53;;;2.20;;
16133;SDS011;8172;45.018;5.972;2022-08-14T03:54:59;2.63;;;2.20;;
16133;SDS011;8172;45.018;5.972;2022-08-14T04:00:09;5.00;;;2.40;;
16133;SDS011;8172;45.018;5.972;2022-08-14T04:05:19;3.77;;;2.20;;
16133;SDS011;8172;45.018;5.972;2022-08-14T04:10:28;4.33;;;2.43;;
16133;SDS011;8172;45.018;5.972;2022-08-14T04:15:37;3.07;;;2.40;;
16133;SDS011;8172;45.018;5.972;2022-08-14T04:20:48;2.73;;;2.50;;
16133;SDS011;8172;45.018;5.972;2022-08-14T04:26:01;3.03;;;2.37;;
16133;SDS011;8172;45.018;5.972;2022-08-14T04:31:10;4.57;;;2.80;;
16133;SDS011;8172;45.018;5.972;2022-08-14T04:36:19;2.43;;;2.10;;
16133;SDS011;8172;45.018;5.972;2022-08-14T04:41:29;3.27;;;2.50;;
16133;SDS011;8172;45.018;5.972;2022-08-14T04:46:41;3.30;;;1.80;;
16133;SDS011;8172;45.018;5.972;2022-08-14T04:51:55;6.80;;;2.23;;
16133;SDS011;8172;45.018;5.972;2022-08-14T04:57:06;3.80;;;2.20;;
16133;SDS011;8172;45.018;5.972;2022-08-14T05:02:17;3.77;;;2.10;;
16133;SDS011;8172;45.018;5.972;2022-08-14T05:07:28;2.33;;;2.10;;
16133;SDS011;8172;45.018;5.972;2022-08-14T05:12:37;2.67;;;2.40;;
16133;SDS011;8172;45.018;5.972;2022-08-14T05:17:51;2.50;;;2.30;;
16133;SDS011;8172;45.018;5.972;2022-08-14T05:23:01;3.90;;;2.50;;
16133;SDS011;8172;45.018;5.972;2022-08-14T05:28:16;3.57;;;2.50;;
16133;SDS011;8172;45.018;5.972;2022-08-14T05:33:26;2.47;;;2.27;;
16133;SDS011;8172;45.018;5.972;2022-08-14T05:38:38;4.40;;;2.37;;
16133;SDS011;8172;45.018;5.972;2022-08-14T05:43:49;3.83;;;2.30;;
16133;SDS011;8172;45.018;5.972;2022-08-14T05:48:59;3.40;;;2.43;;
16133;SDS011;8172;45.018;5.972;2022-08-14T05:54:09;4.73;;;2.20;;
16133;SDS011;8172;45.018;5.972;2022-08-14T05:59:19;4.20;;;2.53;;
16133;SDS011;8172;45.018;5.972;2022-08-14T06:04:29;3.00;;;2.30;;
16133;SDS011;8172;45.018;5.972;2022-08-14T06:09:36;3.00;;;2.20;;
16133;SDS011;8172;45.018;5.972;2022-08-14T06:14:46;5.10;;;2.60;;
16133;SDS011;8172;45.018;5.972;2022-08-14T06:19:54;3.57;;;2.57;;
16133;SDS011;8172;45.018;5.972;2022-08-14T06:25:03;6.13;;;2.80;;
16133;SDS011;8172;45.018;5.972;2022-08-14T06:34:59;5.33;;;3.30;;
16133;SDS011;8172;45.018;5.972;2022-08-14T06:40:12;5.00;;;3.07;;
16133;SDS011;8172;45.018;5.972;2022-08-14T06:50:07;7.53;;;4.40;;
16133;SDS011;8172;45.018;5.972;2022-08-14T06:55:19;7.53;;;5.00;;
16133;SDS011;8172;45.018;5.972;2022-08-14T07:00:35;8.00;;;5.70;;
16133;SDS011;8172;45.018;5.972;2022-08-14T07:07:03;9.40;;;5.73;;
16133;SDS011;8172;45.018;5.972;2022-08-14T07:13:22;10.53;;;5.73;;
16133;SDS011;8172;45.018;5.972;2022-08-14T07:19:19;8.20;;;5.90;;
16133;SDS011;8172;45.018;5.972;2022-08-14T07:25:21;9.50;;;5.60;;
16133;SDS011;8172;45.018;5.972;2022-08-14T07:30:45;8.70;;;6.17;;
16133;SDS011;8172;45.018;5.972;2022-08-14T07:36:03;8.33;;;6.13;;
16133;SDS011;8172;45.018;5.972;2022-08-14T07:41:15;8.73;;;6.43;;
16133;SDS011;8172;45.018;5.972;2022-08-14T07:46:30;10.73;;;6.50;;
16133;SDS011;8172;45.018;5.972;2022-08-14T07:51:40;9.17;;;6.50;;
16133;SDS011;8172;45.018;5.972;2022-08-14T07:56:57;7.80;;;5.60;;
16133;SDS011;8172;45.018;5.972;2022-08-14T08:02:28;7.20;;;5.60;;
16133;SDS011;8172;45.018;5.972;2022-08-14T08:07:38;10.57;;;6.27;;
16133;SDS011;8172;45.018;5.972;2022-08-14T08:12:49;6.57;;;5.70;;
16133;SDS011;8172;45.018;5.972;2022-08-14T08:18:13;7.27;;;5.23;;
16133;SDS011;8172;45.018;5.972;2022-08-14T08:23:24;8.97;;;5.80;;
16133;SDS011;8172;45.018;5.972;2022-08-14T08:28:38;5.20;;;4.70;;
16133;SDS011;8172;45.018;5.972;2022-08-14T08:34:03;7.43;;;6.10;;
16133;SDS011;8172;45.018;5.972;2022-08-14T08:39:41;8.93;;;5.87;;
16133;SDS011;8172;45.018;5.972;2022-08-14T08:45:09;8.57;;;6.20;;
16133;SDS011;8172;45.018;5.972;2022-08-14T08:50:22;20.27;;;5.20;;
16133;SDS011;8172;45.018;5.972;2022-08-14T08:55:38;56.07;;;7.87;;
16133;SDS011;8172;45.018;5.972;2022-08-14T09:00:47;6.20;;;5.47;;
16133;SDS011;8172;45.018;5.972;2022-08-14T09:06:42;6.73;;;5.33;;
16133;SDS011;8172;45.018;5.972;2022-08-14T09:11:42;11.20;;;6.20;;
16133;SDS011;8172;45.018;5.972;2022-08-14T09:16:58;7.87;;;4.17;;
16133;SDS011;8172;45.018;5.972;2022-08-14T09:22:07;3.23;;;2.60;;
16133;SDS011;8172;45.018;5.972;2022-08-14T09:27:25;2.40;;;2.20;;
16133;SDS011;8172;45.018;5.972;2022-08-14T09:32:45;3.90;;;2.63;;
16133;SDS011;8172;45.018;5.972;2022-08-14T09:48:27;3.17;;;2.90;;
16133;SDS011;8172;45.018;5.972;2022-08-14T09:58:49;2.90;;;2.50;;
16133;SDS011;8172;45.018;5.972;2022-08-14T10:04:04;7.57;;;3.30;;
16133;SDS011;8172;45.018;5.972;2022-08-14T10:09:47;3.33;;;2.93;;
16133;SDS011;8172;45.018;5.972;2022-08-14T10:14:58;103.73;;;7.03;;
16133;SDS011;8172;45.018;5.972;2022-08-14T10:20:07;6.30;;;4.37;;
16133;SDS011;8172;45.018;5.972;2022-08-14T10:25:21;5.00;;;3.47;;
16133;SDS011;8172;45.018;5.972;2022-08-14T10:30:33;5.57;;;4.00;;
16133;SDS011;8172;45.018;5.972;2022-08-14T10:35:59;4.27;;;3.50;;
16133;SDS011;8172;45.018;5.972;2022-08-14T10:41:32;5.10;;;4.60;;
16133;SDS011;8172;45.018;5.972;2022-08-14T10:52:08;5.67;;;3.60;;
16133;SDS011;8172;45.018;5.972;2022-08-14T10:57:25;4.67;;;3.87;;
16133;SDS011;8172;45.018;5.972;2022-08-14T11:02:39;4.47;;;3.37;;
16133;SDS011;8172;45.018;5.972;2022-08-14T11:07:57;3.60;;;3.10;;
16133;SDS011;8172;45.018;5.972;2022-08-14T11:13:08;3.03;;;2.73;;
16133;SDS011;8172;45.018;5.972;2022-08-14T11:18:22;3.60;;;3.30;;
16133;SDS011;8172;45.018;5.972;2022-08-14T11:24:06;4.10;;;3.13;;
16133;SDS011;8172;45.018;5.972;2022-08-14T11:29:34;3.80;;;3.40;;
16133;SDS011;8172;45.018;5.972;2022-08-14T11:34:53;4.73;;;3.23;;
16133;SDS011;8172;45.018;5.972;2022-08-14T11:40:23;5.33;;;3.30;;
16133;SDS011;8172;45.018;5.972;2022-08-14T11:45:46;4.40;;;2.90;;
16133;SDS011;8172;45.018;5.972;2022-08-14T11:51:03;3.60;;;3.30;;
16133;SDS011;8172;45.018;5.972;2022-08-14T11:56:17;3.67;;;2.90;;
16133;SDS011;8172;45.018;5.972;2022-08-14T12:01:32;3.17;;;2.87;;
16133;SDS011;8172;45.018;5.972;2022-08-14T12:07:15;3.80;;;2.90;;
16133;SDS011;8172;45.018;5.972;2022-08-14T12:12:51;3.50;;;2.83;;
16133;SDS011;8172;45.018;5.972;2022-08-14T12:18:39;3.37;;;2.70;;
16133;SDS011;8172;45.018;5.972;2022-08-14T12:23:35;4.00;;;2.90;;
16133;SDS011;8172;45.018;5.972;2022-08-14T12:28:48;3.53;;;3.00;;
16133;SDS011;8172;45.018;5.972;2022-08-14T12:34:29;2.70;;;2.50;;
16133;SDS011;8172;45.018;5.972;2022-08-14T12:39:40;4.90;;;2.80;;
16133;SDS011;8172;45.018;5.972;2022-08-14T12:44:54;2.90;;;2.57;;
16133;SDS011;8172;45.018;5.972;2022-08-14T12:50:14;2.50;;;2.10;;
16133;SDS011;8172;45.018;5.972;2022-08-14T12:55:39;3.90;;;2.60;;
16133;SDS011;8172;45.018;5.972;2022-08-14T13:01:04;2.60;;;2.30;;
16133;SDS011;8172;45.018;5.972;2022-08-14T13:06:30;2.47;;;2.27;;
16133;SDS011;8172;45.018;5.972;2022-08-14T13:11:51;2.30;;;2.10;;
16133;SDS011;8172;45.018;5.972;2022-08-14T13:17:08;2.50;;;2.30;;
16133;SDS011;8172;45.018;5.972;2022-08-14T13:22:36;2.50;;;2.30;;
16133;SDS011;8172;45.018;5.972;2022-08-14T13:27:54;2.10;;;1.90;;
16133;SDS011;8172;45.018;5.972;2022-08-14T13:33:08;2.00;;;1.80;;
16133;SDS011;8172;45.018;5.972;2022-08-14T13:38:27;2.83;;;1.90;;
16133;SDS011;8172;45.018;5.972;2022-08-14T13:44:05;3.00;;;1.80;;
16133;SDS011;8172;45.018;5.972;2022-08-14T13:50:15;2.43;;;1.60;;
16133;SDS011;8172;45.018;5.972;2022-08-14T13:55:34;2.30;;;1.60;;
16133;SDS011;8172;45.018;5.972;2022-08-14T14:00:58;1.70;;;1.60;;
16133;SDS011;8172;45.018;5.972;2022-08-14T14:06:40;1.63;;;1.50;;
16133;SDS011;8172;45.018;5.972;2022-08-14T14:12:16;1.60;;;1.50;;
16133;SDS011;8172;45.018;5.972;2022-08-14T14:17:25;3.40;;;1.50;;
16133;SDS011;8172;45.018;5.972;2022-08-14T14:22:38;1.87;;;1.50;;
16133;SDS011;8172;45.018;5.972;2022-08-14T14:27:48;3.43;;;1.60;;
16133;SDS011;8172;45.018;5.972;2022-08-14T14:32:57;2.23;;;1.63;;
16133;SDS011;8172;45.018;5.972;2022-08-14T14:38:05;1.70;;;1.60;;
16133;SDS011;8172;45.018;5.972;2022-08-14T14:43:15;1.50;;;1.40;;
16133;SDS011;8172;45.018;5.972;2022-08-14T14:48:23;1.80;;;1.70;;
16133;SDS011;8172;45.018;5.972;2022-08-14T14:53:33;1.50;;;1.40;;
16133;SDS011;8172;45.018;5.972;2022-08-14T14:58:42;2.30;;;1.70;;
16133;SDS011;8172;45.018;5.972;2022-08-14T15:03:51;2.87;;;1.60;;
16133;SDS011;8172;45.018;5.972;2022-08-14T15:09:00;3.57;;;1.70;;
16133;SDS011;8172;45.018;5.972;2022-08-14T15:14:09;2.57;;;1.90;;
16133;SDS011;8172;45.018;5.972;2022-08-14T15:19:17;2.27;;;2.00;;
16133;SDS011;8172;45.018;5.972;2022-08-14T15:24:27;3.17;;;1.77;;
16133;SDS011;8172;45.018;5.972;2022-08-14T15:29:35;2.00;;;1.80;;
16133;SDS011;8172;45.018;5.972;2022-08-14T15:34:45;2.17;;;1.97;;
16133;SDS011;8172;45.018;5.972;2022-08-14T15:39:54;2.30;;;2.10;;
16133;SDS011;8172;45.018;5.972;2022-08-14T15:45:02;6.30;;;2.23;;
16133;SDS011;8172;45.018;5.972;2022-08-14T15:50:13;8.07;;;3.00;;
16133;SDS011;8172;45.018;5.972;2022-08-14T15:55:21;3.97;;;2.67;;
16133;SDS011;8172;45.018;5.972;2022-08-14T16:00:30;4.27;;;2.73;;
16133;SDS011;8172;45.018;5.972;2022-08-14T16:05:42;3.87;;;2.77;;
16133;SDS011;8172;45.018;5.972;2022-08-14T16:10:50;6.33;;;3.33;;
16133;SDS011;8172;45.018;5.972;2022-08-14T16:15:57;4.87;;;3.27;;
16133;SDS011;8172;45.018;5.972;2022-08-14T16:21:08;3.77;;;2.97;;
16133;SDS011;8172;45.018;5.972;2022-08-14T16:26:18;6.50;;;3.13;;
16133;SDS011;8172;45.018;5.972;2022-08-14T16:31:30;3.83;;;3.30;;
16133;SDS011;8172;45.018;5.972;2022-08-14T16:36:40;3.73;;;3.20;;
16133;SDS011;8172;45.018;5.972;2022-08-14T16:41:49;4.33;;;3.30;;
16133;SDS011;8172;45.018;5.972;2022-08-14T16:47:00;4.53;;;3.10;;
16133;SDS011;8172;45.018;5.972;2022-08-14T16:52:10;4.27;;;3.43;;
16133;SDS011;8172;45.018;5.972;2022-08-14T16:57:21;3.97;;;3.37;;
16133;SDS011;8172;45.018;5.972;2022-08-14T17:02:37;3.97;;;3.37;;
16133;SDS011;8172;45.018;5.972;2022-08-14T17:07:53;4.20;;;3.47;;
16133;SDS011;8172;45.018;5.972;2022-08-14T17:13:14;3.97;;;3.50;;
16133;SDS011;8172;45.018;5.972;2022-08-14T17:18:04;5.50;;;3.60;;
16133;SDS011;8172;45.018;5.972;2022-08-14T17:23:13;5.67;;;3.17;;
16133;SDS011;8172;45.018;5.972;2022-08-14T17:28:26;4.30;;;3.33;;
16133;SDS011;8172;45.018;5.972;2022-08-14T17:33:35;5.27;;;3.73;;
16133;SDS011;8172;45.018;5.972;2022-08-14T17:43:56;4.57;;;3.50;;
16133;SDS011;8172;45.018;5.972;2022-08-14T17:49:12;5.37;;;4.27;;
16133;SDS011;8172;45.018;5.972;2022-08-14T17:54:19;8.47;;;4.33;;
16133;SDS011;8172;45.018;5.972;2022-08-14T17:59:29;5.13;;;4.13;;
16133;SDS011;8172;45.018;5.972;2022-08-14T18:04:38;6.60;;;4.40;;
16133;SDS011;8172;45.018;5.972;2022-08-14T18:09:48;4.63;;;4.10;;
16133;SDS011;8172;45.018;5.972;2022-08-14T18:15:01;6.70;;;4.43;;
16133;SDS011;8172;45.018;5.972;2022-08-14T18:20:10;7.50;;;5.13;;
16133;SDS011;8172;45.018;5.972;2022-08-14T18:25:20;5.83;;;4.63;;
16133;SDS011;8172;45.018;5.972;2022-08-14T18:30:27;6.17;;;4.43;;
16133;SDS011;8172;45.018;5.972;2022-08-14T18:40:47;5.63;;;4.20;;
16133;SDS011;8172;45.018;5.972;2022-08-14T18:45:58;6.20;;;4.13;;
16133;SDS011;8172;45.018;5.972;2022-08-14T18:51:08;5.50;;;4.40;;
16133;SDS011;8172;45.018;5.972;2022-08-14T18:56:18;5.17;;;4.47;;
16133;SDS011;8172;45.018;5.972;2022-08-14T19:01:28;6.07;;;4.23;;
16133;SDS011;8172;45.018;5.972;2022-08-14T19:06:40;4.80;;;4.40;;
16133;SDS011;8172;45.018;5.972;2022-08-14T19:11:49;4.93;;;4.43;;
16133;SDS011;8172;45.018;5.972;2022-08-14T19:16:57;8.20;;;6.07;;
16133;SDS011;8172;45.018;5.972;2022-08-14T19:22:06;4.90;;;4.20;;
16133;SDS011;8172;45.018;5.972;2022-08-14T19:42:47;4.63;;;3.73;;
16133;SDS011;8172;45.018;5.972;2022-08-14T19:47:57;4.43;;;4.00;;
16133;SDS011;8172;45.018;5.972;2022-08-14T19:53:06;7.83;;;4.60;;
16133;SDS011;8172;45.018;5.972;2022-08-14T19:58:16;5.57;;;3.77;;
16133;SDS011;8172;45.018;5.972;2022-08-14T20:03:25;4.30;;;3.90;;
16133;SDS011;8172;45.018;5.972;2022-08-14T20:08:36;6.27;;;4.33;;
16133;SDS011;8172;45.018;5.972;2022-08-14T20:13:45;5.97;;;4.80;;
16133;SDS011;8172;45.018;5.972;2022-08-14T20:18:55;5.93;;;4.80;;
16133;SDS011;8172;45.018;5.972;2022-08-14T20:29:23;6.20;;;4.20;;
16133;SDS011;8172;45.018;5.972;2022-08-14T20:34:31;6.93;;;4.80;;
16133;SDS011;8172;45.018;5.972;2022-08-14T20:39:41;5.87;;;5.20;;
16133;SDS011;8172;45.018;5.972;2022-08-14T20:44:55;5.27;;;4.73;;
16133;SDS011;8172;45.018;5.972;2022-08-14T20:55:23;7.07;;;4.50;;
16133;SDS011;8172;45.018;5.972;2022-08-14T21:05:38;5.20;;;4.20;;
16133;SDS011;8172;45.018;5.972;2022-08-14T21:10:46;7.90;;;4.50;;
16133;SDS011;8172;45.018;5.972;2022-08-14T21:15:55;8.00;;;4.43;;
16133;SDS011;8172;45.018;5.972;2022-08-14T21:21:06;4.93;;;3.83;;
16133;SDS011;8172;45.018;5.972;2022-08-14T21:26:16;4.70;;;4.30;;
16133;SDS011;8172;45.018;5.972;2022-08-14T21:31:28;4.90;;;3.80;;
16133;SDS011;8172;45.018;5.972;2022-08-14T21:36:35;7.00;;;4.50;;
16133;SDS011;8172;45.018;5.972;2022-08-14T21:41:44;8.53;;;4.47;;
16133;SDS011;8172;45.018;5.972;2022-08-14T21:46:54;7.50;;;4.97;;
16133;SDS011;8172;45.018;5.972;2022-08-14T21:52:03;7.17;;;5.23;;
16133;SDS011;8172;45.018;5.972;2022-08-14T21:57:13;6.00;;;5.40;;
16133;SDS011;8172;45.018;5.972;2022-08-14T22:02:21;8.63;;;5.53;;
16133;SDS011;8172;45.018;5.972;2022-08-14T22:07:29;7.60;;;5.50;;
16133;SDS011;8172;45.018;5.972;2022-08-14T22:12:39;9.40;;;7.33;;
16133;SDS011;8172;45.018;5.972;2022-08-14T22:17:48;7.30;;;6.17;;
16133;SDS011;8172;45.018;5.972;2022-08-14T22:22:59;7.10;;;5.40;;
16133;SDS011;8172;45.018;5.972;2022-08-14T22:28:10;6.17;;;5.57;;
16133;SDS011;8172;45.018;5.972;2022-08-14T22:33:19;8.07;;;6.40;;
16133;SDS011;8172;45.018;5.972;2022-08-14T22:38:26;6.90;;;6.20;;
16133;SDS011;8172;45.018;5.972;2022-08-14T22:43:35;9.90;;;7.53;;
16133;SDS011;8172;45.018;5.972;2022-08-14T22:48:43;8.20;;;7.40;;
16133;SDS011;8172;45.018;5.972;2022-08-14T22:53:52;8.03;;;7.10;;
16133;SDS011;8172;45.018;5.972;2022-08-14T22:59:03;7.97;;;6.50;;
16133;SDS011;8172;45.018;5.972;2022-08-14T23:04:14;8.17;;;6.17;;
16133;SDS011;8172;45.018;5.972;2022-08-14T23:09:26;5.90;;;5.40;;
16133;SDS011;8172;45.018;5.972;2022-08-14T23:14:35;7.60;;;5.80;;
16133;SDS011;8172;45.018;5.972;2022-08-14T23:19:45;6.53;;;5.83;;
16133;SDS011;8172;45.018;5.972;2022-08-14T23:24:53;6.40;;;5.80;;
16133;SDS011;8172;45.018;5.972;2022-08-14T23:30:03;7.97;;;5.73;;
16133;SDS011;8172;45.018;5.972;2022-08-14T23:35:15;7.00;;;5.47;;
16133;SDS011;8172;45.018;5.972;2022-08-14T23:40:27;7.37;;;5.50;;
16133;SDS011;8172;45.018;5.972;2022-08-14T23:45:38;7.57;;;5.63;;
16133;SDS011;8172;45.018;5.972;2022-08-14T23:50:47;5.60;;;4.93;;
16133;SDS011;8172;45.018;5.972;2022-08-14T23:55:56;6.37;;;5.10;;
